Tortola's Pride — 005VFE4 — position and weather

sailwx.info

Track history (hours):
 
Tides and Currents Weather Stations Pressure Air Temp Water Temp Dewpoint Dewpoint Depression Visibility Wind Speed Wind Dir Waves Ship Positions

Tortola's Pride

Last reported at 2017-Sep-04 17:44 UTC. Time now 2017-Sep-22 00:47 UTC.
Position N 18°19' W 064°32'.
Warning: this ship's position is 17 days out of date.

Length 49 m; draft 2.8 m.

Type: Cargo ship. MMSI: 671947000.

Date/timePositionNaut miles runAvg speedWind from/ knotsBaromVisibWave heightAir tempDewpointWater temp
2017-Sep-04 17:44N 18°19' W 064°32'2 8.7
2017-Sep-04 17:28N 18°22' W 064°32'4 8.5
2017-Sep-04 17:00N 18°24' W 064°35'  
2017-Aug-31 13:31N 18°25' W 064°36'0 8.8
2017-Aug-31 13:30N 18°24' W 064°36'4 8.7
2017-Aug-31 13:00N 18°23' W 064°40'5 9.3
2017-Aug-31 12:30N 18°23' W 064°45'5 9.2
2017-Aug-31 12:00N 18°24' W 064°50'5 9.1
2017-Aug-31 11:30N 18°25' W 064°55'61 9.1
2017-Aug-31 04:49N 18°30' W 065°59'3 9.0
2017-Aug-31 04:30N 18°30' W 066°02'4 9.1
2017-Aug-31 04:00N 18°29' W 066°06'1 2.8
2017-Aug-31 03:30N 18°28' W 066°06'0 0.0
2017-Aug-31 03:00N 18°28' W 066°06'0 0.0
2017-Aug-31 02:30N 18°28' W 066°06'0 0.0
2017-Aug-31 02:00N 18°28' W 066°06'0 0.0
2017-Aug-31 01:30N 18°28' W 066°06'0 0.0
2017-Aug-31 01:00N 18°28' W 066°06'0 0.0
2017-Aug-31 00:30N 18°28' W 066°06'0 0.0
2017-Aug-31 00:00N 18°28' W 066°06'0 0.0
2017-Aug-30 23:30N 18°28' W 066°06'0 0.0
2017-Aug-30 23:00N 18°28' W 066°06'0 0.0
2017-Aug-30 22:30N 18°28' W 066°06'0 0.0
2017-Aug-30 22:00N 18°28' W 066°06'0 0.0
2017-Aug-30 21:30N 18°28' W 066°06'0 0.0
2017-Aug-30 21:00N 18°28' W 066°06'0 0.0
2017-Aug-30 20:30N 18°28' W 066°06'0 0.0
2017-Aug-30 20:00N 18°28' W 066°06'0 0.0
2017-Aug-30 19:30N 18°28' W 066°06'0 0.0
2017-Aug-30 19:00N 18°28' W 066°06'0 0.0
2017-Aug-30 18:30N 18°28' W 066°06'0 0.0
2017-Aug-30 18:00N 18°28' W 066°06'0 0.0
2017-Aug-30 17:30N 18°28' W 066°06'0 0.0
2017-Aug-30 17:00N 18°28' W 066°06'0 0.0
2017-Aug-30 15:31N 18°28' W 066°06'0 0.0
2017-Aug-30 15:30N 18°28' W 066°06'0 0.0
2017-Aug-30 15:00N 18°28' W 066°06'0 0.0
2017-Aug-30 14:30N 18°28' W 066°06'0 0.0
2017-Aug-30 14:00N 18°28' W 066°06'0 0.0
2017-Aug-30 13:30N 18°28' W 066°06'0 0.0
2017-Aug-30 13:00N 18°28' W 066°06'0 0.0
2017-Aug-30 12:30N 18°28' W 066°06'0 0.0
2017-Aug-30 12:00N 18°28' W 066°06'0 0.0
2017-Aug-30 11:30N 18°28' W 066°06'1 2.4
2017-Aug-30 11:00N 18°28' W 066°07'2 4.7
2017-Aug-30 10:30N 18°30' W 066°06'4 7.8
2017-Aug-30 10:00N 18°30' W 066°02'64 9.3
2017-Aug-30 03:09N 18°25' W 064°55'1 9.6
2017-Aug-30 03:00N 18°25' W 064°54'5 9.6
2017-Aug-30 02:30N 18°24' W 064°49'5 9.8
2017-Aug-30 02:00N 18°23' W 064°44'5 9.9
2017-Aug-30 01:30N 18°23' W 064°38'3 0.2
2017-Aug-29 09:08N 18°25' W 064°36'1 9.2
2017-Aug-29 09:00N 18°25' W 064°35'5 9.1
2017-Aug-29 08:30N 18°24' W 064°30'47 9.6
2017-Aug-29 03:38N 18°14' W 063°42'2 9.0
2017-Aug-29 03:24N 18°13' W 063°40'4 9.6
2017-Aug-29 03:00N 18°12' W 063°36'5 9.4
2017-Aug-29 02:30N 18°11' W 063°31'5 9.8
2017-Aug-29 02:00N 18°10' W 063°26'5 9.9
2017-Aug-29 01:29N 18°09' W 063°21'5 9.8
2017-Aug-29 00:59N 18°07' W 063°16'5 9.7
2017-Aug-29 00:29N 18°06' W 063°11'5 9.5
2017-Aug-28 23:59N 18°05' W 063°06'1 2.0
2017-Aug-28 23:28N 18°05' W 063°05'0 0.0
2017-Aug-28 23:00N 18°05' W 063°05'0 0.0
2017-Aug-28 22:30N 18°05' W 063°05'0 0.0
2017-Aug-28 21:59N 18°05' W 063°05'0 0.0
2017-Aug-28 21:28N 18°05' W 063°05'0 0.0
2017-Aug-28 21:00N 18°05' W 063°05'0 0.0
2017-Aug-28 20:30N 18°05' W 063°05'2 4.0
2017-Aug-28 20:00N 18°06' W 063°07'5 9.3
2017-Aug-28 19:30N 18°09' W 063°11'4 0.5
2017-Aug-28 11:21N 18°13' W 063°09'3 9.1
2017-Aug-28 10:59N 18°13' W 063°12'4 8.7
2017-Aug-28 10:30N 18°14' W 063°17'68 8.4
2017-Aug-28 02:20N 18°24' W 064°28'3 9.1
2017-Aug-28 02:00N 18°24' W 064°31'5 9.4
2017-Aug-28 01:30N 18°25' W 064°36'2 0.1
2017-Aug-26 14:00N 18°24' W 064°38'4 8.3
2017-Aug-26 13:30N 18°23' W 064°42'4 7.8
2017-Aug-26 13:00N 18°23' W 064°46'4 8.9
2017-Aug-26 12:30N 18°24' W 064°51'64 8.7
2017-Aug-26 05:06N 18°30' W 065°58'1 8.4
2017-Aug-26 04:59N 18°30' W 065°59'4 8.3
2017-Aug-26 04:30N 18°30' W 066°03'4 8.2
2017-Aug-26 04:00N 18°29' W 066°07'1 2.8
2017-Aug-26 03:30N 18°28' W 066°06'  
Track history (hours):
 
Tides and Currents Weather Stations Pressure Air Temp Water Temp Dewpoint Dewpoint Depression Visibility Wind Speed Wind Dir Waves Ship Positions

Tortola's Pride

Last reported at 2017-Sep-04 17:44 UTC. Time now 2017-Sep-22 00:47 UTC.
Position N 18°19' W 064°32'.
Warning: this ship's position is 17 days out of date.

Length 49 m; draft 2.8 m.

Type: Cargo ship. MMSI: 671947000.

Date/timePositionNaut miles runAvg speedWind from/ knotsBaromVisibWave heightAir tempDewpointWater temp
2017-Sep-04 17:44N 18°19' W 064°32'2 8.7
2017-Sep-04 17:28N 18°22' W 064°32'4 8.5
2017-Sep-04 17:00N 18°24' W 064°35'  
2017-Aug-31 13:31N 18°25' W 064°36'0 8.8
2017-Aug-31 13:30N 18°24' W 064°36'4 8.7
2017-Aug-31 13:00N 18°23' W 064°40'5 9.3
2017-Aug-31 12:30N 18°23' W 064°45'5 9.2
2017-Aug-31 12:00N 18°24' W 064°50'5 9.1
2017-Aug-31 11:30N 18°25' W 064°55'61 9.1
2017-Aug-31 04:49N 18°30' W 065°59'3 9.0
2017-Aug-31 04:30N 18°30' W 066°02'4 9.1
2017-Aug-31 04:00N 18°29' W 066°06'1 2.8
2017-Aug-31 03:30N 18°28' W 066°06'0 0.0
2017-Aug-31 03:00N 18°28' W 066°06'0 0.0
2017-Aug-31 02:30N 18°28' W 066°06'0 0.0
2017-Aug-31 02:00N 18°28' W 066°06'0 0.0
2017-Aug-31 01:30N 18°28' W 066°06'0 0.0
2017-Aug-31 01:00N 18°28' W 066°06'0 0.0
2017-Aug-31 00:30N 18°28' W 066°06'0 0.0
2017-Aug-31 00:00N 18°28' W 066°06'0 0.0
2017-Aug-30 23:30N 18°28' W 066°06'0 0.0
2017-Aug-30 23:00N 18°28' W 066°06'0 0.0
2017-Aug-30 22:30N 18°28' W 066°06'0 0.0
2017-Aug-30 22:00N 18°28' W 066°06'0 0.0
2017-Aug-30 21:30N 18°28' W 066°06'0 0.0
2017-Aug-30 21:00N 18°28' W 066°06'0 0.0
2017-Aug-30 20:30N 18°28' W 066°06'0 0.0
2017-Aug-30 20:00N 18°28' W 066°06'0 0.0
2017-Aug-30 19:30N 18°28' W 066°06'0 0.0
2017-Aug-30 19:00N 18°28' W 066°06'0 0.0
2017-Aug-30 18:30N 18°28' W 066°06'0 0.0
2017-Aug-30 18:00N 18°28' W 066°06'0 0.0
2017-Aug-30 17:30N 18°28' W 066°06'0 0.0
2017-Aug-30 17:00N 18°28' W 066°06'0 0.0
2017-Aug-30 15:31N 18°28' W 066°06'0 0.0
2017-Aug-30 15:30N 18°28' W 066°06'0 0.0
2017-Aug-30 15:00N 18°28' W 066°06'0 0.0
2017-Aug-30 14:30N 18°28' W 066°06'0 0.0
2017-Aug-30 14:00N 18°28' W 066°06'0 0.0
2017-Aug-30 13:30N 18°28' W 066°06'0 0.0
2017-Aug-30 13:00N 18°28' W 066°06'0 0.0
2017-Aug-30 12:30N 18°28' W 066°06'0 0.0
2017-Aug-30 12:00N 18°28' W 066°06'0 0.0
2017-Aug-30 11:30N 18°28' W 066°06'1 2.4
2017-Aug-30 11:00N 18°28' W 066°07'2 4.7
2017-Aug-30 10:30N 18°30' W 066°06'4 7.8
2017-Aug-30 10:00N 18°30' W 066°02'64 9.3
2017-Aug-30 03:09N 18°25' W 064°55'1 9.6
2017-Aug-30 03:00N 18°25' W 064°54'5 9.6
2017-Aug-30 02:30N 18°24' W 064°49'5 9.8
2017-Aug-30 02:00N 18°23' W 064°44'5 9.9
2017-Aug-30 01:30N 18°23' W 064°38'3 0.2
2017-Aug-29 09:08N 18°25' W 064°36'1 9.2
2017-Aug-29 09:00N 18°25' W 064°35'5 9.1
2017-Aug-29 08:30N 18°24' W 064°30'47 9.6
2017-Aug-29 03:38N 18°14' W 063°42'2 9.0
2017-Aug-29 03:24N 18°13' W 063°40'4 9.6
2017-Aug-29 03:00N 18°12' W 063°36'5 9.4
2017-Aug-29 02:30N 18°11' W 063°31'5 9.8
2017-Aug-29 02:00N 18°10' W 063°26'5 9.9
2017-Aug-29 01:29N 18°09' W 063°21'5 9.8
2017-Aug-29 00:59N 18°07' W 063°16'5 9.7
2017-Aug-29 00:29N 18°06' W 063°11'5 9.5
2017-Aug-28 23:59N 18°05' W 063°06'1 2.0
2017-Aug-28 23:28N 18°05' W 063°05'0 0.0
2017-Aug-28 23:00N 18°05' W 063°05'0 0.0
2017-Aug-28 22:30N 18°05' W 063°05'0 0.0
2017-Aug-28 21:59N 18°05' W 063°05'0 0.0
2017-Aug-28 21:28N 18°05' W 063°05'0 0.0
2017-Aug-28 21:00N 18°05' W 063°05'0 0.0
2017-Aug-28 20:30N 18°05' W 063°05'2 4.0
2017-Aug-28 20:00N 18°06' W 063°07'5 9.3
2017-Aug-28 19:30N 18°09' W 063°11'4 0.5
2017-Aug-28 11:21N 18°13' W 063°09'3 9.1
2017-Aug-28 10:59N 18°13' W 063°12'4 8.7
2017-Aug-28 10:30N 18°14' W 063°17'68 8.4
2017-Aug-28 02:20N 18°24' W 064°28'3 9.1
2017-Aug-28 02:00N 18°24' W 064°31'5 9.4
2017-Aug-28 01:30N 18°25' W 064°36'2 0.1
2017-Aug-26 14:00N 18°24' W 064°38'4 8.3
2017-Aug-26 13:30N 18°23' W 064°42'4 7.8
2017-Aug-26 13:00N 18°23' W 064°46'4 8.9
2017-Aug-26 12:30N 18°24' W 064°51'64 8.7
2017-Aug-26 05:06N 18°30' W 065°58'1 8.4
2017-Aug-26 04:59N 18°30' W 065°59'4 8.3
2017-Aug-26 04:30N 18°30' W 066°03'4 8.2
2017-Aug-26 04:00N 18°29' W 066°07'1 2.8
2017-Aug-26 03:30N 18°28' W 066°06'  

Dump ship's entire track history